sensor_id;sensor_type;location;lat;lon;timestamp;P1;durP1;ratioP1;P2;durP2;ratioP2
45392;SDS011;31129;44.810;10.334;2022-12-19T00:01:43;98.57;;;46.30;;
45392;SDS011;31129;44.810;10.334;2022-12-19T00:04:09;100.13;;;48.22;;
45392;SDS011;31129;44.810;10.334;2022-12-19T00:06:36;97.43;;;47.20;;
45392;SDS011;31129;44.810;10.334;2022-12-19T00:09:03;97.85;;;48.50;;
45392;SDS011;31129;44.810;10.334;2022-12-19T00:11:30;102.28;;;48.83;;
45392;SDS011;31129;44.810;10.334;2022-12-19T00:13:56;114.97;;;50.42;;
45392;SDS011;31129;44.810;10.334;2022-12-19T00:16:23;97.97;;;47.97;;
45392;SDS011;31129;44.810;10.334;2022-12-19T00:18:51;107.82;;;50.83;;
45392;SDS011;31129;44.810;10.334;2022-12-19T00:21:18;98.28;;;45.63;;
45392;SDS011;31129;44.810;10.334;2022-12-19T00:23:45;98.78;;;47.60;;
45392;SDS011;31129;44.810;10.334;2022-12-19T00:26:16;99.35;;;48.17;;
45392;SDS011;31129;44.810;10.334;2022-12-19T00:28:43;97.07;;;47.58;;
45392;SDS011;31129;44.810;10.334;2022-12-19T00:31:11;98.65;;;46.85;;
45392;SDS011;31129;44.810;10.334;2022-12-19T00:33:37;95.38;;;47.35;;
45392;SDS011;31129;44.810;10.334;2022-12-19T00:36:04;104.10;;;48.58;;
45392;SDS011;31129;44.810;10.334;2022-12-19T00:38:31;100.35;;;48.05;;
45392;SDS011;31129;44.810;10.334;2022-12-19T00:41:10;100.00;;;46.65;;
45392;SDS011;31129;44.810;10.334;2022-12-19T00:43:36;100.25;;;47.38;;
45392;SDS011;31129;44.810;10.334;2022-12-19T00:46:05;100.50;;;48.95;;
45392;SDS011;31129;44.810;10.334;2022-12-19T00:48:33;101.50;;;47.17;;
45392;SDS011;31129;44.810;10.334;2022-12-19T00:51:01;101.10;;;47.15;;
45392;SDS011;31129;44.810;10.334;2022-12-19T00:53:29;71.63;;;34.33;;
45392;SDS011;31129;44.810;10.334;2022-12-19T00:55:56;102.65;;;48.20;;
45392;SDS011;31129;44.810;10.334;2022-12-19T00:58:25;95.25;;;47.00;;
45392;SDS011;31129;44.810;10.334;2022-12-19T01:00:50;95.43;;;47.25;;
45392;SDS011;31129;44.810;10.334;2022-12-19T01:03:19;100.00;;;46.03;;
45392;SDS011;31129;44.810;10.334;2022-12-19T01:05:44;98.85;;;47.72;;
45392;SDS011;31129;44.810;10.334;2022-12-19T01:08:10;96.43;;;48.78;;
45392;SDS011;31129;44.810;10.334;2022-12-19T01:10:35;98.93;;;46.10;;
45392;SDS011;31129;44.810;10.334;2022-12-19T01:13:01;97.00;;;47.97;;
45392;SDS011;31129;44.810;10.334;2022-12-19T01:15:26;105.65;;;49.28;;
45392;SDS011;31129;44.810;10.334;2022-12-19T01:17:52;106.50;;;50.55;;
45392;SDS011;31129;44.810;10.334;2022-12-19T01:20:19;107.00;;;49.38;;
45392;SDS011;31129;44.810;10.334;2022-12-19T01:22:46;96.43;;;48.45;;
45392;SDS011;31129;44.810;10.334;2022-12-19T01:25:12;98.65;;;48.28;;
45392;SDS011;31129;44.810;10.334;2022-12-19T01:27:38;108.85;;;50.53;;
45392;SDS011;31129;44.810;10.334;2022-12-19T01:30:04;109.40;;;51.35;;
45392;SDS011;31129;44.810;10.334;2022-12-19T01:32:32;121.60;;;52.53;;
45392;SDS011;31129;44.810;10.334;2022-12-19T01:34:59;114.40;;;52.95;;
45392;SDS011;31129;44.810;10.334;2022-12-19T01:37:25;127.05;;;55.00;;
45392;SDS011;31129;44.810;10.334;2022-12-19T01:39:50;115.45;;;51.08;;
45392;SDS011;31129;44.810;10.334;2022-12-19T01:42:17;105.85;;;48.67;;
45392;SDS011;31129;44.810;10.334;2022-12-19T01:50:07;108.53;;;49.40;;
45392;SDS011;31129;44.810;10.334;2022-12-19T01:52:38;118.18;;;50.08;;
45392;SDS011;31129;44.810;10.334;2022-12-19T01:55:05;107.50;;;50.38;;
45392;SDS011;31129;44.810;10.334;2022-12-19T01:57:31;115.60;;;50.78;;
45392;SDS011;31129;44.810;10.334;2022-12-19T01:59:57;118.28;;;51.85;;
45392;SDS011;31129;44.810;10.334;2022-12-19T02:02:30;124.45;;;52.08;;
45392;SDS011;31129;44.810;10.334;2022-12-19T02:04:58;118.00;;;50.17;;
45392;SDS011;31129;44.810;10.334;2022-12-19T02:07:25;88.15;;;38.67;;
45392;SDS011;31129;44.810;10.334;2022-12-19T02:09:53;128.30;;;50.63;;
45392;SDS011;31129;44.810;10.334;2022-12-19T02:12:20;116.05;;;50.88;;
45392;SDS011;31129;44.810;10.334;2022-12-19T02:14:46;115.97;;;50.28;;
45392;SDS011;31129;44.810;10.334;2022-12-19T02:20:11;115.75;;;48.80;;
45392;SDS011;31129;44.810;10.334;2022-12-19T02:22:38;109.93;;;49.28;;
45392;SDS011;31129;44.810;10.334;2022-12-19T02:30:56;123.72;;;50.78;;
45392;SDS011;31129;44.810;10.334;2022-12-19T02:33:44;122.55;;;46.80;;
45392;SDS011;31129;44.810;10.334;2022-12-19T02:36:31;111.63;;;48.70;;
45392;SDS011;31129;44.810;10.334;2022-12-19T02:39:01;119.30;;;49.53;;
45392;SDS011;31129;44.810;10.334;2022-12-19T02:41:32;112.85;;;47.35;;
45392;SDS011;31129;44.810;10.334;2022-12-19T02:44:17;117.82;;;51.03;;
45392;SDS011;31129;44.810;10.334;2022-12-19T02:46:48;125.28;;;51.47;;
45392;SDS011;31129;44.810;10.334;2022-12-19T02:49:16;120.75;;;48.30;;
45392;SDS011;31129;44.810;10.334;2022-12-19T02:51:41;121.20;;;50.28;;
45392;SDS011;31129;44.810;10.334;2022-12-19T02:54:07;134.88;;;50.38;;
45392;SDS011;31129;44.810;10.334;2022-12-19T02:56:53;119.97;;;49.53;;
45392;SDS011;31129;44.810;10.334;2022-12-19T02:59:45;123.43;;;49.05;;
45392;SDS011;31129;44.810;10.334;2022-12-19T03:02:34;119.80;;;49.85;;
45392;SDS011;31129;44.810;10.334;2022-12-19T03:08:08;120.00;;;50.22;;
45392;SDS011;31129;44.810;10.334;2022-12-19T03:10:59;113.15;;;48.15;;
45392;SDS011;31129;44.810;10.334;2022-12-19T03:13:32;130.20;;;51.10;;
45392;SDS011;31129;44.810;10.334;2022-12-19T03:16:02;123.40;;;49.58;;
45392;SDS011;31129;44.810;10.334;2022-12-19T03:18:30;109.30;;;48.75;;
45392;SDS011;31129;44.810;10.334;2022-12-19T03:23:48;124.40;;;49.88;;
45392;SDS011;31129;44.810;10.334;2022-12-19T03:26:19;113.43;;;50.50;;
45392;SDS011;31129;44.810;10.334;2022-12-19T03:28:55;117.60;;;52.42;;
45392;SDS011;31129;44.810;10.334;2022-12-19T03:31:26;113.88;;;53.30;;
45392;SDS011;31129;44.810;10.334;2022-12-19T03:33:55;120.85;;;50.85;;
45392;SDS011;31129;44.810;10.334;2022-12-19T03:36:25;130.15;;;53.95;;
45392;SDS011;31129;44.810;10.334;2022-12-19T03:38:54;122.13;;;52.53;;
45392;SDS011;31129;44.810;10.334;2022-12-19T03:41:24;130.32;;;52.47;;
45392;SDS011;31129;44.810;10.334;2022-12-19T03:44:09;118.32;;;53.15;;
45392;SDS011;31129;44.810;10.334;2022-12-19T03:46:38;131.77;;;54.90;;
45392;SDS011;31129;44.810;10.334;2022-12-19T03:49:07;130.45;;;54.38;;
45392;SDS011;31129;44.810;10.334;2022-12-19T03:51:39;141.93;;;57.08;;
45392;SDS011;31129;44.810;10.334;2022-12-19T03:54:27;139.80;;;56.30;;
45392;SDS011;31129;44.810;10.334;2022-12-19T03:59:33;133.80;;;56.33;;
45392;SDS011;31129;44.810;10.334;2022-12-19T04:02:12;127.85;;;53.70;;
45392;SDS011;31129;44.810;10.334;2022-12-19T04:04:41;130.40;;;52.47;;
45392;SDS011;31129;44.810;10.334;2022-12-19T04:07:09;129.23;;;54.88;;
45392;SDS011;31129;44.810;10.334;2022-12-19T04:09:36;129.65;;;50.95;;
45392;SDS011;31129;44.810;10.334;2022-12-19T04:12:03;130.82;;;52.15;;
45392;SDS011;31129;44.810;10.334;2022-12-19T04:14:35;142.73;;;56.35;;
45392;SDS011;31129;44.810;10.334;2022-12-19T04:17:14;134.18;;;53.90;;
45392;SDS011;31129;44.810;10.334;2022-12-19T04:20:01;137.68;;;54.75;;
45392;SDS011;31129;44.810;10.334;2022-12-19T04:22:36;144.02;;;57.05;;
45392;SDS011;31129;44.810;10.334;2022-12-19T04:25:07;145.20;;;55.47;;
45392;SDS011;31129;44.810;10.334;2022-12-19T04:27:36;156.85;;;56.97;;
45392;SDS011;31129;44.810;10.334;2022-12-19T04:30:08;142.63;;;57.15;;
45392;SDS011;31129;44.810;10.334;2022-12-19T04:32:36;159.00;;;57.80;;
45392;SDS011;31129;44.810;10.334;2022-12-19T04:35:04;143.55;;;55.60;;
45392;SDS011;31129;44.810;10.334;2022-12-19T04:37:29;158.68;;;61.10;;
45392;SDS011;31129;44.810;10.334;2022-12-19T04:39:55;153.38;;;58.53;;
45392;SDS011;31129;44.810;10.334;2022-12-19T04:42:20;129.52;;;54.70;;
45392;SDS011;31129;44.810;10.334;2022-12-19T04:44:46;116.45;;;51.60;;
45392;SDS011;31129;44.810;10.334;2022-12-19T04:47:11;132.90;;;53.83;;
45392;SDS011;31129;44.810;10.334;2022-12-19T04:49:37;119.95;;;51.95;;
45392;SDS011;31129;44.810;10.334;2022-12-19T04:52:05;123.00;;;50.13;;
45392;SDS011;31129;44.810;10.334;2022-12-19T04:54:31;129.55;;;51.95;;
45392;SDS011;31129;44.810;10.334;2022-12-19T04:56:57;132.00;;;54.97;;
45392;SDS011;31129;44.810;10.334;2022-12-19T04:59:22;141.80;;;53.00;;
45392;SDS011;31129;44.810;10.334;2022-12-19T05:01:48;133.48;;;51.72;;
45392;SDS011;31129;44.810;10.334;2022-12-19T05:04:14;152.65;;;53.40;;
45392;SDS011;31129;44.810;10.334;2022-12-19T05:06:39;144.98;;;50.72;;
45392;SDS011;31129;44.810;10.334;2022-12-19T05:09:05;138.38;;;50.58;;
45392;SDS011;31129;44.810;10.334;2022-12-19T05:11:30;139.85;;;51.88;;
45392;SDS011;31129;44.810;10.334;2022-12-19T05:13:57;150.07;;;53.65;;
45392;SDS011;31129;44.810;10.334;2022-12-19T05:16:22;149.18;;;53.17;;
45392;SDS011;31129;44.810;10.334;2022-12-19T05:18:48;145.48;;;51.95;;
45392;SDS011;31129;44.810;10.334;2022-12-19T05:21:13;136.80;;;50.60;;
45392;SDS011;31129;44.810;10.334;2022-12-19T05:23:39;139.32;;;51.92;;
45392;SDS011;31129;44.810;10.334;2022-12-19T05:26:04;136.73;;;50.45;;
45392;SDS011;31129;44.810;10.334;2022-12-19T05:28:31;131.02;;;48.35;;
45392;SDS011;31129;44.810;10.334;2022-12-19T05:33:34;122.25;;;44.45;;
45392;SDS011;31129;44.810;10.334;2022-12-19T05:36:04;117.43;;;44.00;;
45392;SDS011;31129;44.810;10.334;2022-12-19T05:38:30;115.63;;;45.58;;
45392;SDS011;31129;44.810;10.334;2022-12-19T05:40:56;109.57;;;41.05;;
45392;SDS011;31129;44.810;10.334;2022-12-19T05:43:21;125.72;;;45.25;;
45392;SDS011;31129;44.810;10.334;2022-12-19T05:45:47;108.00;;;42.22;;
45392;SDS011;31129;44.810;10.334;2022-12-19T05:48:13;98.18;;;38.20;;
45392;SDS011;31129;44.810;10.334;2022-12-19T05:50:38;101.35;;;40.00;;
45392;SDS011;31129;44.810;10.334;2022-12-19T05:53:10;106.53;;;39.53;;
45392;SDS011;31129;44.810;10.334;2022-12-19T05:55:35;105.53;;;41.70;;
45392;SDS011;31129;44.810;10.334;2022-12-19T05:58:01;93.72;;;38.00;;
45392;SDS011;31129;44.810;10.334;2022-12-19T06:00:26;101.53;;;38.90;;
45392;SDS011;31129;44.810;10.334;2022-12-19T06:02:55;103.90;;;40.55;;
45392;SDS011;31129;44.810;10.334;2022-12-19T06:05:20;95.65;;;37.55;;
45392;SDS011;31129;44.810;10.334;2022-12-19T06:07:46;95.38;;;38.85;;
45392;SDS011;31129;44.810;10.334;2022-12-19T06:10:12;105.15;;;42.08;;
45392;SDS011;31129;44.810;10.334;2022-12-19T06:12:37;101.47;;;41.78;;
45392;SDS011;31129;44.810;10.334;2022-12-19T06:15:03;105.18;;;40.40;;
45392;SDS011;31129;44.810;10.334;2022-12-19T06:17:29;108.50;;;44.00;;
45392;SDS011;31129;44.810;10.334;2022-12-19T06:19:55;106.97;;;44.00;;
45392;SDS011;31129;44.810;10.334;2022-12-19T06:22:20;105.32;;;41.72;;
45392;SDS011;31129;44.810;10.334;2022-12-19T06:24:46;102.72;;;42.00;;
45392;SDS011;31129;44.810;10.334;2022-12-19T06:27:11;112.63;;;44.10;;
45392;SDS011;31129;44.810;10.334;2022-12-19T06:29:37;116.78;;;45.40;;
45392;SDS011;31129;44.810;10.334;2022-12-19T06:32:02;103.38;;;41.42;;
45392;SDS011;31129;44.810;10.334;2022-12-19T06:34:28;111.13;;;43.78;;
45392;SDS011;31129;44.810;10.334;2022-12-19T06:36:53;108.22;;;41.40;;
45392;SDS011;31129;44.810;10.334;2022-12-19T06:39:18;121.40;;;43.97;;
45392;SDS011;31129;44.810;10.334;2022-12-19T06:41:44;110.22;;;42.50;;
45392;SDS011;31129;44.810;10.334;2022-12-19T06:44:30;114.25;;;42.08;;
45392;SDS011;31129;44.810;10.334;2022-12-19T06:46:55;108.60;;;42.45;;
45392;SDS011;31129;44.810;10.334;2022-12-19T06:49:21;113.13;;;43.00;;
45392;SDS011;31129;44.810;10.334;2022-12-19T06:51:46;113.65;;;44.50;;
45392;SDS011;31129;44.810;10.334;2022-12-19T06:54:12;110.18;;;43.92;;
45392;SDS011;31129;44.810;10.334;2022-12-19T06:56:39;115.30;;;45.97;;
45392;SDS011;31129;44.810;10.334;2022-12-19T06:59:06;107.47;;;43.97;;
45392;SDS011;31129;44.810;10.334;2022-12-19T07:04:27;108.78;;;42.63;;
45392;SDS011;31129;44.810;10.334;2022-12-19T07:06:56;112.43;;;43.63;;
45392;SDS011;31129;44.810;10.334;2022-12-19T07:09:23;106.20;;;43.55;;
45392;SDS011;31129;44.810;10.334;2022-12-19T07:11:49;109.78;;;42.70;;
45392;SDS011;31129;44.810;10.334;2022-12-19T07:14:14;114.75;;;43.00;;
45392;SDS011;31129;44.810;10.334;2022-12-19T07:16:40;103.60;;;41.95;;
45392;SDS011;31129;44.810;10.334;2022-12-19T07:19:06;115.63;;;43.67;;
45392;SDS011;31129;44.810;10.334;2022-12-19T07:21:33;112.78;;;45.88;;
45392;SDS011;31129;44.810;10.334;2022-12-19T07:23:58;110.63;;;44.25;;
45392;SDS011;31129;44.810;10.334;2022-12-19T07:26:24;118.88;;;44.92;;
45392;SDS011;31129;44.810;10.334;2022-12-19T07:28:50;109.70;;;42.10;;
45392;SDS011;31129;44.810;10.334;2022-12-19T07:31:17;114.80;;;42.72;;
45392;SDS011;31129;44.810;10.334;2022-12-19T07:33:43;106.95;;;41.85;;
45392;SDS011;31129;44.810;10.334;2022-12-19T07:36:08;117.30;;;43.03;;
45392;SDS011;31129;44.810;10.334;2022-12-19T07:38:33;123.50;;;43.50;;
45392;SDS011;31129;44.810;10.334;2022-12-19T07:41:00;115.03;;;42.28;;
45392;SDS011;31129;44.810;10.334;2022-12-19T07:43:26;113.88;;;42.08;;
45392;SDS011;31129;44.810;10.334;2022-12-19T07:45:57;120.95;;;42.33;;
45392;SDS011;31129;44.810;10.334;2022-12-19T07:48:23;119.97;;;42.92;;
45392;SDS011;31129;44.810;10.334;2022-12-19T07:50:48;120.15;;;43.65;;
45392;SDS011;31129;44.810;10.334;2022-12-19T07:53:14;122.03;;;42.75;;
45392;SDS011;31129;44.810;10.334;2022-12-19T07:55:40;122.07;;;42.05;;
45392;SDS011;31129;44.810;10.334;2022-12-19T07:58:06;116.68;;;42.58;;
45392;SDS011;31129;44.810;10.334;2022-12-19T08:00:34;113.35;;;42.28;;
45392;SDS011;31129;44.810;10.334;2022-12-19T08:03:00;123.30;;;43.78;;
45392;SDS011;31129;44.810;10.334;2022-12-19T08:05:26;114.13;;;42.65;;
45392;SDS011;31129;44.810;10.334;2022-12-19T08:07:51;121.03;;;42.90;;
45392;SDS011;31129;44.810;10.334;2022-12-19T08:10:16;116.90;;;42.28;;
45392;SDS011;31129;44.810;10.334;2022-12-19T08:12:43;118.20;;;40.80;;
45392;SDS011;31129;44.810;10.334;2022-12-19T08:15:09;135.05;;;44.13;;
45392;SDS011;31129;44.810;10.334;2022-12-19T08:17:35;124.03;;;44.40;;
45392;SDS011;31129;44.810;10.334;2022-12-19T08:20:00;118.25;;;44.65;;
45392;SDS011;31129;44.810;10.334;2022-12-19T08:22:27;127.43;;;45.17;;
45392;SDS011;31129;44.810;10.334;2022-12-19T08:24:53;127.77;;;47.67;;
45392;SDS011;31129;44.810;10.334;2022-12-19T08:27:19;118.28;;;42.85;;
45392;SDS011;31129;44.810;10.334;2022-12-19T08:29:44;130.48;;;46.45;;
45392;SDS011;31129;44.810;10.334;2022-12-19T08:32:10;134.75;;;47.58;;
45392;SDS011;31129;44.810;10.334;2022-12-19T08:34:35;137.60;;;47.10;;
45392;SDS011;31129;44.810;10.334;2022-12-19T08:37:01;135.07;;;48.03;;
45392;SDS011;31129;44.810;10.334;2022-12-19T08:39:26;122.88;;;46.83;;
45392;SDS011;31129;44.810;10.334;2022-12-19T08:41:51;122.90;;;45.92;;
45392;SDS011;31129;44.810;10.334;2022-12-19T08:44:17;135.70;;;48.40;;
45392;SDS011;31129;44.810;10.334;2022-12-19T08:46:42;133.05;;;47.03;;
45392;SDS011;31129;44.810;10.334;2022-12-19T08:49:09;139.55;;;49.75;;
45392;SDS011;31129;44.810;10.334;2022-12-19T08:51:34;134.50;;;51.50;;
45392;SDS011;31129;44.810;10.334;2022-12-19T08:54:00;149.00;;;54.10;;
45392;SDS011;31129;44.810;10.334;2022-12-19T08:56:25;141.10;;;50.72;;
45392;SDS011;31129;44.810;10.334;2022-12-19T08:58:51;138.20;;;49.85;;
45392;SDS011;31129;44.810;10.334;2022-12-19T09:01:17;146.35;;;49.25;;
45392;SDS011;31129;44.810;10.334;2022-12-19T09:03:44;138.45;;;50.47;;
45392;SDS011;31129;44.810;10.334;2022-12-19T09:06:13;147.23;;;49.22;;
45392;SDS011;31129;44.810;10.334;2022-12-19T09:08:41;134.98;;;49.25;;
45392;SDS011;31129;44.810;10.334;2022-12-19T09:13:35;130.70;;;49.63;;
45392;SDS011;31129;44.810;10.334;2022-12-19T09:16:03;130.25;;;47.25;;
45392;SDS011;31129;44.810;10.334;2022-12-19T09:18:29;136.13;;;50.03;;
45392;SDS011;31129;44.810;10.334;2022-12-19T09:20:56;132.57;;;50.92;;
45392;SDS011;31129;44.810;10.334;2022-12-19T09:23:22;139.18;;;48.55;;
45392;SDS011;31129;44.810;10.334;2022-12-19T09:25:51;145.15;;;50.70;;
45392;SDS011;31129;44.810;10.334;2022-12-19T09:28:24;138.10;;;49.47;;
45392;SDS011;31129;44.810;10.334;2022-12-19T09:30:53;132.38;;;47.13;;
45392;SDS011;31129;44.810;10.334;2022-12-19T09:33:20;143.98;;;49.50;;
45392;SDS011;31129;44.810;10.334;2022-12-19T09:35:52;133.50;;;46.58;;
45392;SDS011;31129;44.810;10.334;2022-12-19T09:38:19;137.85;;;47.78;;
45392;SDS011;31129;44.810;10.334;2022-12-19T09:40:49;137.70;;;49.03;;
45392;SDS011;31129;44.810;10.334;2022-12-19T09:43:31;139.10;;;49.83;;
45392;SDS011;31129;44.810;10.334;2022-12-19T09:46:18;149.07;;;54.20;;
45392;SDS011;31129;44.810;10.334;2022-12-19T09:48:47;145.13;;;49.67;;
45392;SDS011;31129;44.810;10.334;2022-12-19T09:51:29;132.57;;;47.83;;
45392;SDS011;31129;44.810;10.334;2022-12-19T09:56:40;133.38;;;47.15;;
45392;SDS011;31129;44.810;10.334;2022-12-19T09:59:12;131.75;;;46.65;;
45392;SDS011;31129;44.810;10.334;2022-12-19T10:01:49;125.45;;;45.58;;
45392;SDS011;31129;44.810;10.334;2022-12-19T10:04:20;123.78;;;45.08;;
45392;SDS011;31129;44.810;10.334;2022-12-19T10:06:50;131.50;;;46.63;;
45392;SDS011;31129;44.810;10.334;2022-12-19T10:09:17;140.77;;;49.90;;
45392;SDS011;31129;44.810;10.334;2022-12-19T10:22:37;135.73;;;48.85;;
45392;SDS011;31129;44.810;10.334;2022-12-19T10:28:11;132.73;;;48.05;;
45392;SDS011;31129;44.810;10.334;2022-12-19T10:33:27;133.77;;;49.45;;
45392;SDS011;31129;44.810;10.334;2022-12-19T10:36:14;131.23;;;47.75;;
45392;SDS011;31129;44.810;10.334;2022-12-19T10:38:52;141.40;;;51.28;;
45392;SDS011;31129;44.810;10.334;2022-12-19T10:41:24;131.65;;;48.67;;
45392;SDS011;31129;44.810;10.334;2022-12-19T10:46:27;135.18;;;48.45;;
45392;SDS011;31129;44.810;10.334;2022-12-19T10:49:13;129.98;;;49.40;;
45392;SDS011;31129;44.810;10.334;2022-12-19T10:54:35;134.05;;;49.78;;
45392;SDS011;31129;44.810;10.334;2022-12-19T11:05:02;143.00;;;50.23;;
45392;SDS011;31129;44.810;10.334;2022-12-19T11:07:29;137.27;;;49.80;;
45392;SDS011;31129;44.810;10.334;2022-12-19T11:09:55;143.45;;;49.83;;
45392;SDS011;31129;44.810;10.334;2022-12-19T11:12:23;146.50;;;50.38;;
45392;SDS011;31129;44.810;10.334;2022-12-19T11:14:51;145.95;;;51.78;;
45392;SDS011;31129;44.810;10.334;2022-12-19T11:22:23;153.35;;;50.67;;
45392;SDS011;31129;44.810;10.334;2022-12-19T11:24:52;156.15;;;52.97;;
45392;SDS011;31129;44.810;10.334;2022-12-19T11:27:36;152.13;;;52.15;;
45392;SDS011;31129;44.810;10.334;2022-12-19T11:30:05;156.43;;;52.33;;
45392;SDS011;31129;44.810;10.334;2022-12-19T11:32:37;141.13;;;50.28;;
45392;SDS011;31129;44.810;10.334;2022-12-19T11:35:25;150.65;;;52.15;;
45392;SDS011;31129;44.810;10.334;2022-12-19T11:37:55;153.32;;;49.92;;
45392;SDS011;31129;44.810;10.334;2022-12-19T11:40:44;144.13;;;50.28;;
45392;SDS011;31129;44.810;10.334;2022-12-19T11:43:36;160.07;;;52.40;;
45392;SDS011;31129;44.810;10.334;2022-12-19T11:48:54;151.20;;;51.75;;
45392;SDS011;31129;44.810;10.334;2022-12-19T11:56:50;146.18;;;51.28;;
45392;SDS011;31129;44.810;10.334;2022-12-19T12:07:35;146.00;;;52.58;;
45392;SDS011;31129;44.810;10.334;2022-12-19T12:10:12;135.75;;;49.67;;
45392;SDS011;31129;44.810;10.334;2022-12-19T12:18:11;147.40;;;53.13;;
45392;SDS011;31129;44.810;10.334;2022-12-19T12:21:23;140.55;;;49.67;;
45392;SDS011;31129;44.810;10.334;2022-12-19T12:30:16;134.25;;;49.63;;
45392;SDS011;31129;44.810;10.334;2022-12-19T12:35:34;129.95;;;48.30;;
45392;SDS011;31129;44.810;10.334;2022-12-19T12:44:00;132.68;;;46.28;;
45392;SDS011;31129;44.810;10.334;2022-12-19T12:46:34;134.32;;;48.35;;
45392;SDS011;31129;44.810;10.334;2022-12-19T12:49:05;143.73;;;52.22;;
45392;SDS011;31129;44.810;10.334;2022-12-19T12:51:58;128.43;;;47.25;;
45392;SDS011;31129;44.810;10.334;2022-12-19T12:54:27;132.38;;;47.20;;
45392;SDS011;31129;44.810;10.334;2022-12-19T12:56:57;136.75;;;47.78;;
45392;SDS011;31129;44.810;10.334;2022-12-19T12:59:24;136.52;;;49.55;;
45392;SDS011;31129;44.810;10.334;2022-12-19T13:01:53;143.50;;;47.70;;
45392;SDS011;31129;44.810;10.334;2022-12-19T13:11:47;153.10;;;52.85;;
45392;SDS011;31129;44.810;10.334;2022-12-19T13:17:05;121.63;;;46.53;;
45392;SDS011;31129;44.810;10.334;2022-12-19T13:19:31;127.70;;;48.55;;
45392;SDS011;31129;44.810;10.334;2022-12-19T13:22:20;140.20;;;49.72;;
45392;SDS011;31129;44.810;10.334;2022-12-19T13:25:08;133.15;;;48.17;;
45392;SDS011;31129;44.810;10.334;2022-12-19T13:27:56;155.30;;;50.95;;
45392;SDS011;31129;44.810;10.334;2022-12-19T13:31:20;146.88;;;49.38;;
45392;SDS011;31129;44.810;10.334;2022-12-19T13:44:58;119.93;;;46.90;;
45392;SDS011;31129;44.810;10.334;2022-12-19T13:47:28;118.55;;;47.67;;
45392;SDS011;31129;44.810;10.334;2022-12-19T13:49:58;118.72;;;49.08;;
45392;SDS011;31129;44.810;10.334;2022-12-19T13:52:28;120.72;;;48.30;;
45392;SDS011;31129;44.810;10.334;2022-12-19T13:54:55;116.43;;;46.53;;
45392;SDS011;31129;44.810;10.334;2022-12-19T13:57:25;115.57;;;45.65;;
45392;SDS011;31129;44.810;10.334;2022-12-19T13:59:53;122.07;;;48.08;;
45392;SDS011;31129;44.810;10.334;2022-12-19T14:05:33;111.88;;;45.10;;
45392;SDS011;31129;44.810;10.334;2022-12-19T14:08:00;119.45;;;45.80;;
45392;SDS011;31129;44.810;10.334;2022-12-19T14:10:31;128.82;;;45.80;;
45392;SDS011;31129;44.810;10.334;2022-12-19T14:12:59;122.88;;;47.33;;
45392;SDS011;31129;44.810;10.334;2022-12-19T14:15:47;124.90;;;47.78;;
45392;SDS011;31129;44.810;10.334;2022-12-19T14:20:48;142.32;;;51.75;;
45392;SDS011;31129;44.810;10.334;2022-12-19T14:23:15;113.57;;;45.83;;
45392;SDS011;31129;44.810;10.334;2022-12-19T14:25:41;124.88;;;48.47;;
45392;SDS011;31129;44.810;10.334;2022-12-19T14:28:10;119.18;;;48.45;;
45392;SDS011;31129;44.810;10.334;2022-12-19T14:30:41;116.15;;;46.58;;
45392;SDS011;31129;44.810;10.334;2022-12-19T14:33:14;120.68;;;48.80;;
45392;SDS011;31129;44.810;10.334;2022-12-19T14:35:46;117.03;;;46.67;;
45392;SDS011;31129;44.810;10.334;2022-12-19T14:38:16;117.30;;;47.78;;
45392;SDS011;31129;44.810;10.334;2022-12-19T14:40:45;113.32;;;46.35;;
45392;SDS011;31129;44.810;10.334;2022-12-19T14:46:12;116.32;;;46.58;;
45392;SDS011;31129;44.810;10.334;2022-12-19T14:48:51;117.18;;;46.10;;
45392;SDS011;31129;44.810;10.334;2022-12-19T14:51:39;116.63;;;46.78;;
45392;SDS011;31129;44.810;10.334;2022-12-19T14:59:27;118.07;;;47.33;;
45392;SDS011;31129;44.810;10.334;2022-12-19T15:04:43;122.20;;;47.65;;
45392;SDS011;31129;44.810;10.334;2022-12-19T15:07:16;119.10;;;46.35;;
45392;SDS011;31129;44.810;10.334;2022-12-19T15:12:14;102.95;;;42.03;;
45392;SDS011;31129;44.810;10.334;2022-12-19T15:17:43;117.10;;;47.00;;
45392;SDS011;31129;44.810;10.334;2022-12-19T15:20:10;115.03;;;46.80;;
45392;SDS011;31129;44.810;10.334;2022-12-19T15:22:36;113.35;;;46.03;;
45392;SDS011;31129;44.810;10.334;2022-12-19T15:25:01;113.05;;;45.13;;
45392;SDS011;31129;44.810;10.334;2022-12-19T15:27:27;110.20;;;46.90;;
45392;SDS011;31129;44.810;10.334;2022-12-19T15:29:52;110.93;;;45.17;;
45392;SDS011;31129;44.810;10.334;2022-12-19T15:32:18;115.63;;;46.08;;
45392;SDS011;31129;44.810;10.334;2022-12-19T15:34:46;106.70;;;44.33;;
45392;SDS011;31129;44.810;10.334;2022-12-19T15:37:12;111.28;;;44.22;;
45392;SDS011;31129;44.810;10.334;2022-12-19T15:39:39;118.60;;;45.17;;
45392;SDS011;31129;44.810;10.334;2022-12-19T15:42:08;105.25;;;45.40;;
45392;SDS011;31129;44.810;10.334;2022-12-19T15:44:43;115.85;;;44.95;;
45392;SDS011;31129;44.810;10.334;2022-12-19T15:47:21;107.60;;;44.87;;
45392;SDS011;31129;44.810;10.334;2022-12-19T15:49:54;111.50;;;44.72;;
45392;SDS011;31129;44.810;10.334;2022-12-19T15:52:19;115.95;;;46.45;;
45392;SDS011;31129;44.810;10.334;2022-12-19T15:54:46;102.47;;;43.97;;
45392;SDS011;31129;44.810;10.334;2022-12-19T15:57:28;112.43;;;46.83;;
45392;SDS011;31129;44.810;10.334;2022-12-19T15:59:57;103.60;;;42.75;;
45392;SDS011;31129;44.810;10.334;2022-12-19T16:02:25;107.25;;;43.53;;
45392;SDS011;31129;44.810;10.334;2022-12-19T16:04:51;107.47;;;45.72;;
45392;SDS011;31129;44.810;10.334;2022-12-19T16:07:21;106.10;;;44.75;;
45392;SDS011;31129;44.810;10.334;2022-12-19T16:10:04;105.20;;;44.13;;
45392;SDS011;31129;44.810;10.334;2022-12-19T16:12:34;102.10;;;42.58;;
45392;SDS011;31129;44.810;10.334;2022-12-19T16:15:02;105.88;;;43.95;;
45392;SDS011;31129;44.810;10.334;2022-12-19T16:17:29;104.85;;;43.92;;
45392;SDS011;31129;44.810;10.334;2022-12-19T16:19:56;101.68;;;41.45;;
45392;SDS011;31129;44.810;10.334;2022-12-19T16:24:52;125.97;;;49.38;;
45392;SDS011;31129;44.810;10.334;2022-12-19T16:27:25;123.78;;;48.15;;
45392;SDS011;31129;44.810;10.334;2022-12-19T16:29:54;132.82;;;50.10;;
45392;SDS011;31129;44.810;10.334;2022-12-19T16:32:40;121.03;;;47.33;;
45392;SDS011;31129;44.810;10.334;2022-12-19T16:35:10;118.70;;;48.25;;
45392;SDS011;31129;44.810;10.334;2022-12-19T16:37:37;120.13;;;50.10;;
45392;SDS011;31129;44.810;10.334;2022-12-19T16:40:06;107.80;;;46.50;;
45392;SDS011;31129;44.810;10.334;2022-12-19T16:42:31;120.38;;;47.15;;
45392;SDS011;31129;44.810;10.334;2022-12-19T16:44:57;125.38;;;47.22;;